KFRR/FRR METAR and TAF weather

Enter ICAO airport designator
Station Type Date Time Source
KFRR METAR 2021/03/04 21:55 UTC NOAA

KFRR 042155Z AUTO 36012G18KT 10SM SCT060 07/M04 A2993 RMK AO1


Station Type Date Time Source
KFRR Decoded METAR 2021/03/04 21:55 UTC NOAA

Station name not available
Mar 04, 2021 - 04:55 PM EST / 2021.03.04 2155 UTC
Wind: from the N (360 degrees) at 14 MPH (12 KT) gusting to 21 MPH (18 KT):0
Visibility: 10 mile(s):0
Sky conditions: partly cloudy
Temperature: 44 F (7 C)
Dew Point: 24 F (-4 C)
Relative Humidity: 45%
Pressure (altimeter): 29.93 in. Hg (1013 hPa)
ob: KFRR 042155Z AUTO 36012G18KT 10SM SCT060 07/M04 A2993 RMK AO1
cycle: 22

Station Type Date Time Source
KFRR TAF UTC NOAA

Error!

Example: see airport list